Time;durP1;ratioP1;P1;durP2;ratioP2;P2;SDS_P1;SDS_P2;PMS_P1;PMS_P2;Temp;Humidity;BMP_temperature;BMP_pressure;BME280_temperature;BME280_humidity;BME280_pressure;Samples;Min_cycle;Max_cycle;Signal;HPM_P1;HPM_P2
2022/06/10 00:00:51;;;;;;;0.93;0.52;;;9.20;99.90;;;;;;5004635;28;20025;-80
2022/06/10 00:03:20;;;;;;;1.02;0.50;;;9.20;99.90;;;;;;5005207;28;20030;-81
2022/06/10 00:05:51;;;;;;;0.82;0.50;;;9.30;99.90;;;;;;5007714;28;20029;-82
2022/06/10 00:08:24;;;;;;;0.60;0.45;;;9.40;99.90;;;;;;5006355;28;20141;-81
2022/06/10 00:10:52;;;;;;;0.50;0.40;;;9.40;99.90;;;;;;5004737;28;20383;-82
2022/06/10 00:13:22;;;;;;;0.82;0.50;;;9.40;99.90;;;;;;5005733;28;20029;-81
2022/06/10 00:15:53;;;;;;;1.17;0.65;;;9.50;99.90;;;;;;5005698;28;20105;-80
2022/06/10 00:18:23;;;;;;;1.42;0.63;;;9.50;99.90;;;;;;5001893;28;20032;-81
2022/06/10 00:20:51;;;;;;;1.30;0.63;;;9.60;99.90;;;;;;5007465;28;20029;-80
2022/06/10 00:23:19;;;;;;;0.40;0.40;;;9.60;99.90;;;;;;5004678;28;20027;-81
2022/06/10 00:25:47;;;;;;;0.80;0.57;;;9.70;99.90;;;;;;5005578;28;20025;-78
2022/06/10 00:28:16;;;;;;;1.85;0.50;;;9.80;99.90;;;;;;5003378;28;20030;-73
2022/06/10 00:30:43;;;;;;;0.82;0.40;;;9.90;99.90;;;;;;5004956;28;20018;-85
2022/06/10 00:33:12;;;;;;;2.47;0.43;;;9.90;99.90;;;;;;5010233;28;20026;-79
2022/06/10 00:35:40;;;;;;;0.50;0.30;;;10.20;99.90;;;;;;5013130;28;20053;-83
2022/06/10 00:38:08;;;;;;;1.17;0.50;;;10.20;99.90;;;;;;5012330;28;20490;-83
2022/06/10 00:40:41;;;;;;;2.58;0.73;;;10.30;99.90;;;;;;5001699;28;20032;-82
2022/06/10 00:43:15;;;;;;;0.90;0.60;;;10.20;99.90;;;;;;5002459;28;20038;-82
2022/06/10 00:46:01;;;;;;;0.63;0.50;;;10.20;99.90;;;;;;5009326;28;20470;-82
2022/06/10 00:48:48;;;;;;;0.85;0.50;;;10.20;99.90;;;;;;5000411;28;20029;-73
2022/06/10 00:51:15;;;;;;;4.70;0.65;;;10.20;99.90;;;;;;5003919;28;20026;-71
2022/06/10 00:53:43;;;;;;;1.15;0.65;;;10.20;99.90;;;;;;5009006;28;20072;-82
2022/06/10 00:56:19;;;;;;;0.75;0.40;;;10.20;99.90;;;;;;4998318;28;20097;-78
2022/06/10 00:59:24;;;;;;;0.73;0.57;;;10.30;99.90;;;;;;5002561;28;20022;-75
2022/06/10 01:01:55;;;;;;;0.73;0.50;;;10.40;99.90;;;;;;4992231;28;20033;-76
2022/06/10 01:04:24;;;;;;;0.52;0.40;;;10.50;99.90;;;;;;4999419;28;20483;-75
2022/06/10 01:06:52;;;;;;;1.00;0.40;;;10.50;99.90;;;;;;5006507;28;20407;-77
2022/06/10 01:09:20;;;;;;;0.68;0.40;;;10.60;99.90;;;;;;5006956;28;20026;-76
2022/06/10 01:12:07;;;;;;;0.55;0.30;;;10.70;99.90;;;;;;4998989;28;20025;-75
2022/06/10 01:14:58;;;;;;;0.70;0.50;;;10.60;99.90;;;;;;5000833;28;20088;-74
2022/06/10 01:17:37;;;;;;;0.55;0.38;;;10.70;99.90;;;;;;5002212;28;20088;-76
2022/06/10 01:20:32;;;;;;;0.68;0.52;;;10.70;99.90;;;;;;5009777;28;20036;-75
2022/06/10 01:23:09;;;;;;;0.52;0.40;;;10.70;99.90;;;;;;5002632;28;20026;-76
2022/06/10 01:25:58;;;;;;;0.68;0.40;;;10.80;99.90;;;;;;5000321;28;20022;-75
2022/06/10 01:29:10;;;;;;;0.47;0.43;;;10.90;99.90;;;;;;4992278;28;20454;-76
2022/06/10 01:31:51;;;;;;;0.65;0.47;;;11.00;99.90;;;;;;5012101;28;20168;-76
2022/06/10 01:34:59;;;;;;;0.70;0.40;;;11.00;99.90;;;;;;4998017;28;20072;-76
2022/06/10 01:37:36;;;;;;;1.95;0.65;;;11.10;99.90;;;;;;4978933;28;20074;-75
2022/06/10 01:40:21;;;;;;;1.10;0.60;;;11.10;99.90;;;;;;5011951;28;20026;-75
2022/06/10 01:43:14;;;;;;;3.00;0.82;;;11.10;99.90;;;;;;5005209;28;20023;-75
2022/06/10 01:46:00;;;;;;;1.25;1.00;;;11.20;99.90;;;;;;5008902;28;20028;-75
2022/06/10 01:48:47;;;;;;;2.45;0.73;;;11.30;99.90;;;;;;4999076;28;20048;-75
2022/06/10 01:51:42;;;;;;;0.50;0.40;;;11.20;99.90;;;;;;5002620;28;20105;-76
2022/06/10 01:54:50;;;;;;;1.00;0.50;;;11.20;99.90;;;;;;4991389;28;20029;-75
2022/06/10 01:57:23;;;;;;;;;;;11.30;99.90;;;;;;5005706;28;20125;-76
2022/06/10 02:00:08;;;;;;;0.60;0.50;;;11.30;99.90;;;;;;5013385;28;19909;-76
2022/06/10 02:02:41;;;;;;;0.80;0.50;;;11.30;99.90;;;;;;4999956;28;20017;-74
2022/06/10 02:05:15;;;;;;;0.80;0.50;;;11.30;99.90;;;;;;5003036;28;20046;-74
2022/06/10 02:08:02;;;;;;;0.80;0.40;;;11.40;99.90;;;;;;5008668;28;20030;-74
2022/06/10 02:10:37;;;;;;;0.57;0.40;;;11.50;99.90;;;;;;4998164;28;20026;-74
2022/06/10 02:13:13;;;;;;;1.80;0.40;;;11.50;99.90;;;;;;5003843;28;20014;-74
2022/06/10 02:15:55;;;;;;;0.50;0.30;;;11.50;99.90;;;;;;5008490;28;20030;-75
2022/06/10 02:18:35;;;;;;;1.08;0.55;;;11.60;99.90;;;;;;4998233;28;20021;-76
2022/06/10 02:21:11;;;;;;;1.95;0.52;;;11.70;99.90;;;;;;5003564;28;20029;-74
2022/06/10 02:23:45;;;;;;;0.70;0.43;;;11.80;99.90;;;;;;5008062;28;20022;-75
2022/06/10 02:26:14;;;;;;;0.90;0.50;;;11.80;99.90;;;;;;4996831;28;20026;-76
2022/06/10 02:28:49;;;;;;;6.28;0.75;;;11.90;99.90;;;;;;5006274;28;20026;-75
2022/06/10 02:31:28;;;;;;;1.70;0.55;;;12.00;99.90;;;;;;5004727;28;20025;-75
2022/06/10 02:33:56;;;;;;;0.73;0.50;;;12.00;99.90;;;;;;4996894;28;20088;-76
2022/06/10 02:36:48;;;;;;;0.57;0.43;;;12.20;99.90;;;;;;5009024;28;20475;-77
2022/06/10 02:39:31;;;;;;;0.77;0.43;;;12.30;99.90;;;;;;4993658;28;20089;-75
2022/06/10 02:41:59;;;;;;;0.70;0.43;;;12.30;99.90;;;;;;5009604;28;20380;-75
2022/06/10 02:45:08;;;;;;;2.03;1.17;;;12.40;99.90;;;;;;4998060;28;20022;-74
2022/06/10 02:47:50;;;;;;;1.27;0.38;;;12.50;99.90;;;;;;4993807;28;20042;-77
2022/06/10 02:50:18;;;;;;;4.18;0.70;;;12.50;99.90;;;;;;4996853;28;20037;-75
2022/06/10 02:52:47;;;;;;;1.50;0.40;;;12.50;99.90;;;;;;5005992;28;20430;-74
2022/06/10 02:55:19;;;;;;;0.90;0.50;;;12.60;99.90;;;;;;5002491;28;20112;-77
2022/06/10 03:01:12;;;;;;;0.65;0.30;;;12.50;99.90;;;;;;5003961;28;20025;-78
2022/06/10 03:04:15;;;;;;;1.15;0.65;;;12.50;99.90;;;;;;5007431;28;20018;-77
2022/06/10 03:06:48;;;;;;;0.80;0.50;;;12.60;99.90;;;;;;4978337;28;20069;-76
2022/06/10 03:09:29;;;;;;;2.72;0.77;;;12.70;99.90;;;;;;5001589;28;20062;-78
2022/06/10 03:12:09;;;;;;;0.80;0.40;;;12.80;99.90;;;;;;5009395;28;20108;-76
2022/06/10 03:15:08;;;;;;;0.50;0.35;;;12.80;99.90;;;;;;4999121;28;20021;-76
2022/06/10 03:17:53;;;;;;;0.65;0.60;;;12.80;99.90;;;;;;4979851;28;20125;-75
2022/06/10 03:20:36;;;;;;;1.20;0.90;;;12.80;99.90;;;;;;4996917;28;20065;-75
2022/06/10 03:23:07;;;;;;;1.27;0.38;;;12.80;99.90;;;;;;4996794;28;20260;-77
2022/06/10 03:25:35;;;;;;;0.93;0.40;;;12.80;99.90;;;;;;5010260;28;20026;-75
2022/06/10 03:28:18;;;;;;;0.82;0.50;;;12.80;99.90;;;;;;5000100;28;20038;-77
2022/06/10 03:31:10;;;;;;;0.60;0.40;;;12.70;99.90;;;;;;5009088;28;20018;-77
2022/06/10 03:34:08;;;;;;;1.30;0.57;;;12.80;99.90;;;;;;5007372;28;20030;-77
2022/06/10 03:36:36;;;;;;;0.52;0.30;;;12.80;99.90;;;;;;4989746;28;20505;-77
2022/06/10 03:39:06;;;;;;;0.90;0.47;;;12.80;99.90;;;;;;5011927;28;20049;-75
2022/06/10 03:41:41;;;;;;;1.15;0.50;;;12.90;99.90;;;;;;5010943;28;20022;-77
2022/06/10 03:44:16;;;;;;;0.95;0.40;;;12.90;99.90;;;;;;5013438;28;20116;-75
2022/06/10 03:46:49;;;;;;;1.13;0.50;;;12.90;99.90;;;;;;5012286;28;20083;-76
2022/06/10 03:49:19;;;;;;;0.47;0.35;;;13.10;99.90;;;;;;5010675;28;20053;-76
2022/06/10 03:51:47;;;;;;;4.78;0.50;;;13.10;99.90;;;;;;5005571;28;20087;-75
2022/06/10 03:54:19;;;;;;;0.55;0.35;;;13.10;99.90;;;;;;5007680;28;20048;-75
2022/06/10 03:56:47;;;;;;;1.33;0.60;;;13.10;99.90;;;;;;5008904;28;20025;-76
2022/06/10 03:59:15;;;;;;;0.75;0.40;;;13.20;99.90;;;;;;5010874;28;20037;-76
2022/06/10 04:01:43;;;;;;;0.50;0.32;;;13.10;99.90;;;;;;5012893;28;20017;-77
2022/06/10 04:04:11;;;;;;;3.33;0.40;;;13.20;99.90;;;;;;5012676;28;20037;-76
2022/06/10 04:06:39;;;;;;;0.55;0.40;;;13.10;99.90;;;;;;5011952;28;20124;-77
2022/06/10 04:09:07;;;;;;;1.20;0.30;;;13.10;99.90;;;;;;5010300;28;20037;-75
2022/06/10 04:11:35;;;;;;;0.88;0.43;;;13.10;99.90;;;;;;5006852;28;20023;-77
2022/06/10 04:14:03;;;;;;;0.40;0.30;;;13.20;99.90;;;;;;5007601;28;20025;-76
2022/06/10 04:16:30;;;;;;;0.85;0.40;;;13.20;99.90;;;;;;5004781;28;20064;-77
2022/06/10 04:18:58;;;;;;;0.50;0.30;;;13.10;99.90;;;;;;5007264;28;20508;-77
2022/06/10 04:21:26;;;;;;;0.38;0.35;;;13.20;99.90;;;;;;5005938;28;20356;-75
2022/06/10 04:23:54;;;;;;;0.50;0.50;;;13.20;99.90;;;;;;5004943;28;20024;-77
2022/06/10 04:26:21;;;;;;;0.98;0.50;;;13.20;99.90;;;;;;5011407;28;20456;-77
2022/06/10 04:28:49;;;;;;;1.20;0.43;;;13.20;99.90;;;;;;5003469;28;20379;-75
2022/06/10 04:31:18;;;;;;;3.60;0.43;;;13.20;99.90;;;;;;5003846;28;20097;-75
2022/06/10 04:33:46;;;;;;;1.10;0.47;;;13.20;99.90;;;;;;5010628;28;20042;-72
2022/06/10 04:36:19;;;;;;;0.30;0.28;;;13.10;99.90;;;;;;4998737;28;20449;-72
2022/06/10 04:38:47;;;;;;;0.52;0.30;;;13.10;99.90;;;;;;5007968;28;20045;-71
2022/06/10 04:41:16;;;;;;;0.30;0.30;;;13.10;99.90;;;;;;5006734;28;20029;-72
2022/06/10 04:43:44;;;;;;;0.88;0.32;;;13.10;99.90;;;;;;5000271;28;20030;-78
2022/06/10 04:46:21;;;;;;;0.20;0.20;;;13.10;99.90;;;;;;5011423;28;20461;-71
2022/06/10 04:48:49;;;;;;;1.13;0.20;;;13.10;99.90;;;;;;5002974;28;20172;-83
2022/06/10 04:51:16;;;;;;;0.47;0.30;;;13.10;99.90;;;;;;5002346;28;20027;-72
2022/06/10 04:53:44;;;;;;;0.32;0.30;;;13.00;99.90;;;;;;5010401;28;20026;-84
2022/06/10 04:56:12;;;;;;;0.60;0.22;;;13.00;99.90;;;;;;4998471;28;20501;-71
2022/06/10 04:58:40;;;;;;;1.50;0.40;;;13.00;99.90;;;;;;5010787;28;20038;-73
2022/06/10 05:01:07;;;;;;;2.95;0.30;;;12.90;99.90;;;;;;5006110;28;20022;-83
2022/06/10 05:03:36;;;;;;;0.38;0.20;;;13.00;99.90;;;;;;5006469;28;20106;-84
2022/06/10 05:06:05;;;;;;;0.90;0.30;;;13.10;99.90;;;;;;5003635;28;20499;-72
2022/06/10 05:08:33;;;;;;;1.42;0.28;;;13.10;99.90;;;;;;5003369;28;20040;-71
2022/06/10 05:11:01;;;;;;;0.20;0.20;;;13.20;99.90;;;;;;5006507;28;20029;-71
2022/06/10 05:13:28;;;;;;;0.32;0.30;;;13.20;99.90;;;;;;5005160;28;20419;-72
2022/06/10 05:15:56;;;;;;;0.20;0.20;;;13.20;99.90;;;;;;5007090;28;20533;-73
2022/06/10 05:18:26;;;;;;;0.32;0.30;;;13.20;99.90;;;;;;5005540;28;20096;-75
2022/06/10 05:20:54;;;;;;;1.20;0.45;;;13.20;99.90;;;;;;5005305;28;20022;-72
2022/06/10 05:23:24;;;;;;;0.30;0.20;;;13.20;99.90;;;;;;5005792;28;20022;-82
2022/06/10 05:25:53;;;;;;;0.30;0.30;;;13.20;99.90;;;;;;5006901;28;20025;-73
2022/06/10 05:28:22;;;;;;;1.38;0.40;;;13.20;99.90;;;;;;5004136;28;20699;-73
2022/06/10 05:30:50;;;;;;;4.13;0.50;;;13.10;99.90;;;;;;5007173;28;20018;-71
2022/06/10 05:33:18;;;;;;;0.55;0.20;;;13.00;99.90;;;;;;5006201;28;20032;-71
2022/06/10 05:35:46;;;;;;;0.55;0.50;;;13.10;99.90;;;;;;5006650;28;20410;-81
2022/06/10 05:38:15;;;;;;;0.73;0.50;;;13.10;99.90;;;;;;5005832;28;20049;-72
2022/06/10 05:40:44;;;;;;;0.65;0.25;;;13.20;99.90;;;;;;5006219;28;20475;-71
2022/06/10 05:43:12;;;;;;;0.43;0.35;;;13.20;99.90;;;;;;5006713;28;20064;-71
2022/06/10 05:45:40;;;;;;;4.60;0.38;;;13.20;99.90;;;;;;5004822;28;20022;-71
2022/06/10 05:48:09;;;;;;;1.50;0.98;;;13.10;99.90;;;;;;5007832;28;20086;-72
2022/06/10 05:50:40;;;;;;;0.82;0.60;;;13.10;99.90;;;;;;5005308;28;20112;-72
2022/06/10 05:53:10;;;;;;;3.28;0.80;;;13.00;99.90;;;;;;5004007;28;20060;-72
2022/06/10 05:55:39;;;;;;;0.75;0.50;;;13.00;99.90;;;;;;5004724;28;20021;-72
2022/06/10 05:58:07;;;;;;;0.75;0.50;;;12.90;99.90;;;;;;5002392;28;20442;-75
2022/06/10 06:00:35;;;;;;;0.32;0.30;;;12.90;99.90;;;;;;5002798;28;20417;-72
2022/06/10 06:03:03;;;;;;;2.72;0.75;;;12.90;99.90;;;;;;5004215;28;20496;-72
2022/06/10 06:05:31;;;;;;;0.55;0.30;;;12.80;99.90;;;;;;5003674;28;20490;-71
2022/06/10 06:07:58;;;;;;;0.98;0.50;;;12.80;99.90;;;;;;5002752;28;20034;-72
2022/06/10 06:10:27;;;;;;;1.35;0.73;;;12.70;99.90;;;;;;5009038;28;20026;-72
2022/06/10 06:12:56;;;;;;;5.47;0.50;;;12.70;99.90;;;;;;4993803;28;20030;-83
2022/06/10 06:15:24;;;;;;;0.60;0.40;;;12.70;99.90;;;;;;5003747;28;20025;-77
2022/06/10 06:17:53;;;;;;;1.00;0.55;;;12.60;99.90;;;;;;4993709;28;20197;-72
2022/06/10 06:20:22;;;;;;;0.50;0.40;;;12.60;99.90;;;;;;5000775;28;20014;-71
2022/06/10 06:22:50;;;;;;;4.28;0.60;;;12.50;99.90;;;;;;4994507;28;20367;-72
2022/06/10 06:25:19;;;;;;;0.65;0.40;;;12.50;99.90;;;;;;5006028;28;20027;-72
2022/06/10 06:27:48;;;;;;;2.30;0.52;;;12.40;99.90;;;;;;5002603;28;20498;-71
2022/06/10 06:30:26;;;;;;;1.60;0.43;;;12.30;99.90;;;;;;5004290;28;20022;-80
2022/06/10 06:32:54;;;;;;;0.60;0.50;;;12.20;99.90;;;;;;5002910;28;20491;-72
2022/06/10 06:35:22;;;;;;;2.33;0.50;;;12.20;99.90;;;;;;5005974;28;20028;-72
2022/06/10 06:37:50;;;;;;;1.05;0.65;;;12.20;99.90;;;;;;5007413;28;20022;-79
2022/06/10 06:40:18;;;;;;;0.85;0.50;;;12.10;99.90;;;;;;4997536;28;20084;-72
2022/06/10 06:42:47;;;;;;;0.80;0.40;;;12.10;99.90;;;;;;5006389;28;20026;-72
2022/06/10 06:45:15;;;;;;;1.05;0.43;;;12.00;99.90;;;;;;5004650;28;20441;-72
2022/06/10 06:47:44;;;;;;;1.30;0.60;;;12.00;99.90;;;;;;4996558;28;20023;-72
2022/06/10 06:50:15;;;;;;;1.25;0.85;;;11.90;99.90;;;;;;5010171;28;20021;-73
2022/06/10 06:52:43;;;;;;;1.45;0.80;;;11.90;99.90;;;;;;5004261;28;20030;-72
2022/06/10 06:55:11;;;;;;;0.85;0.63;;;11.80;99.90;;;;;;4994871;28;20085;-73
2022/06/10 06:57:39;;;;;;;0.82;0.63;;;11.80;99.90;;;;;;5008801;28;20030;-75
2022/06/10 07:00:08;;;;;;;2.05;0.88;;;11.80;99.90;;;;;;4998612;28;20033;-73
2022/06/10 07:02:38;;;;;;;1.55;0.82;;;11.70;99.90;;;;;;5010210;28;20026;-72
2022/06/10 07:05:06;;;;;;;0.55;0.43;;;11.70;99.90;;;;;;5005701;28;20481;-72
2022/06/10 07:07:35;;;;;;;1.15;0.50;;;11.50;99.90;;;;;;5003621;28;20050;-77
2022/06/10 07:10:03;;;;;;;4.38;0.60;;;11.50;99.90;;;;;;5015688;28;20390;-80
2022/06/10 07:12:31;;;;;;;1.90;0.52;;;11.50;99.90;;;;;;5017599;28;20021;-82
2022/06/10 07:14:59;;;;;;;0.40;0.38;;;11.40;99.90;;;;;;5017252;28;20033;-81
2022/06/10 07:17:27;;;;;;;3.75;0.65;;;11.40;99.90;;;;;;5016165;28;20463;-73
2022/06/10 07:19:58;;;;;;;0.80;0.43;;;11.40;99.90;;;;;;5016770;28;20105;-79
2022/06/10 07:22:26;;;;;;;0.63;0.50;;;11.30;99.90;;;;;;5014313;28;20130;-70
2022/06/10 07:24:55;;;;;;;0.70;0.43;;;11.20;99.90;;;;;;5015433;28;20030;-71
2022/06/10 07:27:22;;;;;;;2.05;0.40;;;11.20;99.90;;;;;;5015463;28;20040;-71
2022/06/10 07:29:51;;;;;;;1.02;0.63;;;11.20;99.90;;;;;;5016645;28;20026;-80
2022/06/10 07:32:19;;;;;;;0.73;0.40;;;11.10;99.90;;;;;;5017114;28;20375;-80
2022/06/10 07:34:46;;;;;;;0.73;0.40;;;11.10;99.90;;;;;;5016185;28;20471;-80
2022/06/10 07:37:14;;;;;;;0.50;0.35;;;11.00;99.90;;;;;;5017601;28;20014;-80
2022/06/10 07:39:42;;;;;;;0.63;0.47;;;11.00;99.90;;;;;;5017670;28;20032;-81
2022/06/10 07:42:09;;;;;;;0.40;0.40;;;11.00;99.90;;;;;;5016265;28;20053;-80
2022/06/10 07:44:39;;;;;;;1.10;0.40;;;11.00;99.90;;;;;;5016838;28;20025;-80
2022/06/10 07:47:10;;;;;;;0.50;0.45;;;10.90;99.90;;;;;;5014884;28;20386;-72
2022/06/10 07:49:38;;;;;;;0.63;0.50;;;10.90;99.90;;;;;;5014004;28;20389;-80
2022/06/10 07:52:07;;;;;;;0.40;0.40;;;10.80;99.90;;;;;;5014908;28;20030;-80
2022/06/10 07:54:35;;;;;;;1.08;0.68;;;10.80;99.90;;;;;;5015269;28;20030;-80
2022/06/10 07:57:04;;;;;;;0.50;0.40;;;10.80;99.90;;;;;;5013509;28;20053;-80
2022/06/10 07:59:32;;;;;;;1.45;0.77;;;10.80;99.90;;;;;;5011664;28;20145;-80
2022/06/10 08:02:00;;;;;;;1.38;0.50;;;10.70;99.90;;;;;;5013523;28;20097;-72
2022/06/10 08:04:28;;;;;;;3.90;0.65;;;10.70;99.90;;;;;;5011309;28;20037;-73
2022/06/10 08:06:55;;;;;;;1.55;0.70;;;10.70;99.90;;;;;;5013325;28;20069;-80
2022/06/10 08:09:23;;;;;;;1.33;0.70;;;10.70;99.90;;;;;;5012895;28;20034;-72
2022/06/10 08:11:52;;;;;;;3.35;0.80;;;10.60;99.90;;;;;;5014315;28;20022;-80
2022/06/10 08:14:21;;;;;;;0.77;0.70;;;10.50;99.90;;;;;;5015379;28;20032;-72
2022/06/10 08:16:49;;;;;;;1.33;0.88;;;10.50;99.90;;;;;;5013302;28;20479;-77
2022/06/10 08:19:16;;;;;;;1.35;0.75;;;10.50;99.90;;;;;;5013905;28;20030;-72
2022/06/10 08:24:30;;;;;;;1.45;0.90;;;10.40;99.90;;;;;;5013566;28;20029;-72
2022/06/10 08:26:57;;;;;;;2.22;0.90;;;10.40;99.90;;;;;;5013072;28;20038;-71
2022/06/10 08:29:26;;;;;;;0.63;0.60;;;10.40;99.90;;;;;;5014386;28;20046;-73
2022/06/10 08:31:54;;;;;;;1.50;0.70;;;10.30;99.90;;;;;;5013769;28;20013;-80
2022/06/10 08:34:22;;;;;;;2.78;0.90;;;10.20;99.90;;;;;;5013146;28;20022;-76
2022/06/10 08:36:49;;;;;;;0.88;0.60;;;10.20;99.90;;;;;;5012645;28;20326;-80
2022/06/10 08:39:17;;;;;;;3.65;1.15;;;10.10;99.90;;;;;;5013932;28;20094;-78
2022/06/10 08:42:08;;;;;;;1.98;0.82;;;10.10;99.90;;;;;;5011411;28;20394;-73
2022/06/10 08:44:49;;;;;;;1.40;0.82;;;10.10;99.90;;;;;;5013095;28;20022;-79
2022/06/10 08:47:31;;;;;;;1.10;0.70;;;10.10;99.90;;;;;;5012622;28;20022;-77
2022/06/10 08:50:06;;;;;;;2.95;1.42;;;10.00;99.90;;;;;;5013818;28;20033;-80
2022/06/10 08:52:36;;;;;;;4.15;2.00;;;10.10;99.90;;;;;;5011684;28;20014;-80
2022/06/10 08:55:07;;;;;;;2.30;1.17;;;10.10;99.90;;;;;;5013592;28;20018;-80
2022/06/10 08:57:41;;;;;;;2.38;1.00;;;10.10;99.90;;;;;;5013855;28;20466;-80
2022/06/10 09:00:32;;;;;;;2.05;0.98;;;10.00;99.90;;;;;;5013480;28;20057;-76
2022/06/10 09:03:23;;;;;;;1.98;1.40;;;10.00;99.90;;;;;;5013956;28;20093;-78
2022/06/10 09:06:14;;;;;;;1.65;0.90;;;10.00;99.90;;;;;;5009066;28;20041;-80
2022/06/10 09:08:47;;;;;;;1.50;0.70;;;9.90;99.90;;;;;;5010715;28;20034;-73
2022/06/10 09:11:31;;;;;;;1.25;0.63;;;9.90;99.90;;;;;;5013410;28;20014;-74
2022/06/10 09:14:02;;;;;;;1.38;0.90;;;9.90;99.90;;;;;;5011130;28;20021;-80
2022/06/10 09:16:53;;;;;;;3.40;2.17;;;9.90;99.90;;;;;;5012724;28;20057;-75
2022/06/10 09:19:44;;;;;;;3.22;2.03;;;9.80;99.90;;;;;;5012586;28;20022;-80
2022/06/10 09:22:33;;;;;;;4.25;1.33;;;9.80;99.90;;;;;;5013459;28;20569;-74
2022/06/10 09:25:10;;;;;;;4.53;3.58;;;9.80;99.90;;;;;;5013523;28;20387;-80
2022/06/10 09:27:53;;;;;;;3.17;2.28;;;9.70;99.90;;;;;;5015068;28;20026;-78
2022/06/10 09:30:26;;;;;;;10.80;5.28;;;9.70;99.90;;;;;;5011599;28;20068;-73
2022/06/10 09:33:22;;;;;;;11.82;8.00;;;9.70;99.90;;;;;;5013508;28;20471;-72
2022/06/10 09:36:10;;;;;;;6.32;4.22;;;9.70;99.90;;;;;;5012959;28;20478;-72
2022/06/10 09:39:01;;;;;;;2.42;1.60;;;9.70;99.90;;;;;;5012763;28;20029;-74
2022/06/10 09:41:40;;;;;;;2.83;2.05;;;9.70;99.90;;;;;;5013155;28;20010;-80
2022/06/10 09:44:15;;;;;;;2.35;1.75;;;9.60;99.90;;;;;;5013387;28;20018;-80
2022/06/10 09:47:30;;;;;;;3.05;1.95;;;9.60;99.90;;;;;;5010421;28;20018;-80
2022/06/10 09:50:22;;;;;;;4.22;2.30;;;9.60;99.90;;;;;;5002698;28;20053;-72
2022/06/10 09:53:03;;;;;;;4.18;2.78;;;9.60;99.90;;;;;;5011123;28;20454;-72
2022/06/10 09:55:52;;;;;;;3.10;2.45;;;9.50;99.90;;;;;;5011960;28;20024;-73
2022/06/10 09:58:34;;;;;;;6.75;2.65;;;9.60;99.90;;;;;;5011891;28;20018;-72
2022/06/10 10:01:31;;;;;;;4.40;3.05;;;9.50;99.90;;;;;;5012324;28;20018;-72
2022/06/10 10:04:00;;;;;;;;;;;9.50;99.90;;;;;;5011505;28;20049;-74
2022/06/10 10:06:37;;;;;;;;;;;9.50;99.90;;;;;;5011892;28;19921;-80
2022/06/10 10:09:12;;;;;;;;;;;9.50;99.90;;;;;;5012618;28;19920;-72
2022/06/10 10:11:45;;;;;;;;;;;9.50;99.90;;;;;;5011860;28;19905;-72
2022/06/10 10:14:17;;;;;;;;;;;9.50;99.90;;;;;;5012133;28;19951;-73
2022/06/10 10:17:02;;;;;;;;;;;9.50;99.90;;;;;;5012114;28;19928;-72
2022/06/10 10:19:32;;;;;;;;;;;9.50;99.90;;;;;;5012623;28;19944;-80
2022/06/10 10:22:04;;;;;;;;;;;9.50;99.90;;;;;;5012005;28;19916;-72
2022/06/10 10:24:34;;;;;;;;;;;9.50;99.90;;;;;;5011131;28;19935;-77
2022/06/10 10:27:01;;;;;;;;;;;9.60;99.90;;;;;;5013353;28;20362;-80
2022/06/10 10:29:33;;;;;;;;;;;9.60;99.90;;;;;;5014401;28;20267;-75
2022/06/10 10:32:09;;;;;;;;;;;9.60;99.90;;;;;;5011012;28;19916;-73
2022/06/10 10:34:37;;;;;;;;;;;9.60;99.90;;;;;;5011124;28;19957;-73
2022/06/10 10:37:10;;;;;;;;;;;9.60;99.90;;;;;;5012677;28;19917;-81
2022/06/10 10:39:38;;;;;;;;;;;9.60;99.90;;;;;;5011233;28;19905;-80
2022/06/10 10:42:13;;;;;;;;;;;9.70;99.90;;;;;;5015555;28;19952;-78
2022/06/10 10:45:00;;;;;;;;;;;9.70;99.90;;;;;;5010430;28;20016;-76
2022/06/10 10:47:28;;;;;;;;;;;9.70;99.90;;;;;;5012720;28;19917;-72
2022/06/10 10:49:57;;;;;;;;;;;9.60;99.90;;;;;;5011484;28;19987;-73
2022/06/10 10:52:28;;;;;;;;;;;9.60;99.90;;;;;;5015274;28;19906;-79
2022/06/10 10:55:02;;;;;;;;;;;9.60;99.90;;;;;;5015780;28;20021;-75
2022/06/10 10:57:32;;;;;;;;;;;9.50;99.90;;;;;;5014586;28;19936;-74
2022/06/10 10:59:58;;;;;;;;;;;9.60;99.90;;;;;;5012641;28;19932;-74
2022/06/10 11:02:39;;;;;;;;;;;9.50;99.90;;;;;;5015216;28;19905;-71
2022/06/10 11:05:18;;;;;;;;;;;9.50;99.90;;;;;;5010260;28;20028;-74
2022/06/10 11:07:46;;;;;;;;;;;9.50;99.90;;;;;;5012257;28;19976;-76
2022/06/10 11:10:20;;;;;;;;;;;9.50;99.90;;;;;;5010878;28;20426;-73
2022/06/10 11:12:47;;;;;;;;;;;9.50;99.90;;;;;;5012446;28;20529;-72
2022/06/10 11:15:34;;;;;;;;;;;9.40;99.90;;;;;;5008729;28;19913;-72
2022/06/10 11:18:02;;;;;;;;;;;9.50;99.90;;;;;;5012321;28;20516;-77
2022/06/10 11:20:37;;;;;;;;;;;9.40;99.90;;;;;;5013561;28;19906;-77
2022/06/10 11:23:24;;;;;;;;;;;9.40;99.90;;;;;;5015934;28;19906;-73
2022/06/10 11:26:10;;;;;;;;;;;9.40;99.90;;;;;;5011148;28;19996;-72
2022/06/10 11:28:39;;;;;;;;;;;9.30;99.90;;;;;;5009739;28;20333;-73
2022/06/10 11:31:18;;;;;;;;;;;9.30;99.90;;;;;;5014510;28;19909;-73
2022/06/10 11:33:47;;;;;;;;;;;9.20;99.90;;;;;;5013952;28;19996;-79
2022/06/10 11:36:21;;;;;;;;;;;9.20;99.90;;;;;;5016251;28;19913;-79
2022/06/10 11:38:53;;;;;;;;;;;9.20;99.90;;;;;;5015778;28;19913;-72
2022/06/10 11:41:25;;;;;;;;;;;9.20;99.90;;;;;;5011963;28;19916;-72
2022/06/10 11:43:55;;;;;;;;;;;9.20;99.90;;;;;;5011538;28;19909;-71
2022/06/10 11:46:25;;;;;;;;;;;9.20;99.90;;;;;;5013942;28;19932;-72
2022/06/10 11:48:52;;;;;;;;;;;9.10;99.90;;;;;;5012402;28;19917;-73
2022/06/10 11:51:21;;;;;;;;;;;9.10;99.90;;;;;;5014304;28;19913;-74
2022/06/10 11:54:00;;;;;;;;;;;9.10;99.90;;;;;;5014116;28;19914;-72
2022/06/10 11:59:53;;;;;;;;;;;9.00;99.90;;;;;;5010069;28;19912;-72
2022/06/10 12:02:30;;;;;;;;;;;9.00;99.90;;;;;;5009922;28;19948;-72
2022/06/10 12:05:23;;;;;;;;;;;8.90;99.90;;;;;;5013527;28;19960;-73
2022/06/10 12:07:53;;;;;;;;;;;8.90;99.90;;;;;;5012406;28;19913;-74
2022/06/10 12:10:23;;;;;;;;;;;8.80;99.90;;;;;;5017246;28;19909;-75
2022/06/10 12:12:50;;;;;;;;;;;8.80;99.90;;;;;;5014115;28;19941;-72
2022/06/10 12:15:28;;;;;;;;;;;8.80;99.90;;;;;;5014887;28;20259;-79
2022/06/10 12:17:57;;;;;;;;;;;8.80;99.90;;;;;;5014348;28;20003;-77
2022/06/10 12:20:29;;;;;;;;;;;8.70;99.90;;;;;;5015287;28;19905;-73
2022/06/10 12:22:56;;;;;;;;;;;8.70;99.90;;;;;;5016567;28;19986;-72
2022/06/10 12:25:41;;;;;;;;;;;8.70;99.90;;;;;;5016908;28;19906;-79
2022/06/10 12:28:17;;;;;;;;;;;8.70;99.90;;;;;;5012363;28;19971;-79
2022/06/10 12:30:48;;;;;;;;;;;8.70;99.90;;;;;;5022755;28;19932;-77
2022/06/10 12:33:23;;;;;;;;;;;8.70;99.90;;;;;;5022179;28;19909;-82
2022/06/10 12:35:52;;;;;;;;;;;8.70;99.90;;;;;;5027901;28;19906;-77
2022/06/10 12:38:24;;;;;;;;;;;8.60;99.90;;;;;;5029272;28;19914;-77
2022/06/10 12:41:03;;;;;;;;;;;8.60;99.90;;;;;;5028242;28;19905;-76
2022/06/10 12:43:32;;;;;;;;;;;8.60;99.90;;;;;;5023852;28;19913;-76
2022/06/10 12:46:21;;;;;;;;;;;8.60;99.90;;;;;;5025645;28;19913;-77
2022/06/10 12:48:48;;;;;;;;;;;8.60;99.90;;;;;;5016544;28;19918;-73
2022/06/10 12:51:33;;;;;;;;;;;8.60;99.90;;;;;;5023768;28;20358;-74
2022/06/10 12:54:05;;;;;;;;;;;8.70;99.90;;;;;;5017159;28;19913;-73
2022/06/10 12:56:34;;;;;;;;;;;8.70;99.90;;;;;;5017871;28;19905;-73
2022/06/10 12:59:07;;;;;;;;;;;8.70;99.90;;;;;;5015547;28;19912;-74
2022/06/10 13:01:33;;;;;;;;;;;8.60;99.90;;;;;;5018002;28;19905;-74
2022/06/10 13:04:03;;;;;;;;;;;8.60;99.90;;;;;;5019285;28;19905;-76
2022/06/10 13:06:42;;;;;;;;;;;8.60;99.90;;;;;;5021729;28;19924;-78
2022/06/10 13:09:18;;;;;;;;;;;8.60;99.90;;;;;;5024209;28;19914;-79
2022/06/10 13:11:57;;;;;;;;;;;8.70;99.90;;;;;;5021148;28;19905;-75
2022/06/10 13:14:23;;;;;;;;;;;8.70;99.90;;;;;;5017044;28;19906;-77
2022/06/10 13:16:59;;;;;;;;;;;8.70;99.90;;;;;;5019373;28;19910;-80
2022/06/10 13:19:41;;;;;;;;;;;8.70;99.90;;;;;;5017427;28;19905;-74
2022/06/10 13:22:20;;;;;;;;;;;8.70;99.90;;;;;;5016874;28;19973;-74
2022/06/10 13:24:53;;;;;;;;;;;8.70;99.90;;;;;;5014006;28;19951;-77
2022/06/10 13:27:28;;;;;;;;;;;8.70;99.90;;;;;;5009246;28;19909;-75
2022/06/10 13:29:58;;;;;;;;;;;8.70;99.90;;;;;;5009723;28;19943;-73
2022/06/10 13:32:27;;;;;;;;;;;8.70;99.90;;;;;;4999237;28;19953;-76
2022/06/10 13:35:04;;;;;;;;;;;8.70;99.90;;;;;;5005419;28;19909;-78
2022/06/10 13:37:40;;;;;;;;;;;8.60;99.90;;;;;;5013393;28;19905;-71
2022/06/10 13:40:07;;;;;;;;;;;8.60;99.90;;;;;;5015235;28;20384;-72
2022/06/10 13:42:35;;;;;;;;;;;8.60;99.90;;;;;;5014992;28;19913;-78
2022/06/10 13:45:04;;;;;;;;;;;8.60;99.90;;;;;;5015148;28;20000;-79
2022/06/10 13:47:34;;;;;;;;;;;8.60;99.90;;;;;;5015003;28;20011;-80
2022/06/10 13:53:00;;;;;;;;;;;8.50;99.90;;;;;;5015121;28;19905;-81
2022/06/10 13:55:37;;;;;;;;;;;8.50;99.90;;;;;;5011404;28;19905;-73
2022/06/10 13:58:07;;;;;;;;;;;8.50;99.90;;;;;;5015272;28;19912;-82
2022/06/10 14:00:53;;;;;;;;;;;8.50;99.90;;;;;;5015012;28;19906;-80
2022/06/10 14:03:25;;;;;;;;;;;8.50;99.90;;;;;;5015125;28;19920;-72